sensor_id;sensor_type;location;lat;lon;timestamp;pressure;altitude;pressure_sealevel;temperature;humidity
6150;BME280;3106;42.670;23.318;2023-02-19T00:00:57;94705.41;;;7.73;70.68
6150;BME280;3106;42.670;23.318;2023-02-19T00:03:25;94715.31;;;7.64;71.10
6150;BME280;3106;42.670;23.318;2023-02-19T00:05:52;94681.22;;;7.49;72.38
6150;BME280;3106;42.670;23.318;2023-02-19T00:08:19;94707.00;;;7.65;71.39
6150;BME280;3106;42.670;23.318;2023-02-19T00:10:46;94702.63;;;7.52;72.51
6150;BME280;3106;42.670;23.318;2023-02-19T00:13:13;94697.31;;;7.44;72.77
6150;BME280;3106;42.670;23.318;2023-02-19T00:15:41;94693.25;;;7.46;72.16
6150;BME280;3106;42.670;23.318;2023-02-19T00:18:08;94699.69;;;7.37;74.02
6150;BME280;3106;42.670;23.318;2023-02-19T00:20:35;94693.91;;;7.35;74.09
6150;BME280;3106;42.670;23.318;2023-02-19T00:23:02;94698.75;;;7.42;74.48
6150;BME280;3106;42.670;23.318;2023-02-19T00:25:31;94689.22;;;7.41;74.06
6150;BME280;3106;42.670;23.318;2023-02-19T00:28:01;94694.69;;;7.36;75.20
6150;BME280;3106;42.670;23.318;2023-02-19T00:30:28;94682.00;;;7.41;74.41
6150;BME280;3106;42.670;23.318;2023-02-19T00:32:57;94677.19;;;7.35;75.06
6150;BME280;3106;42.670;23.318;2023-02-19T00:35:32;94681.53;;;7.47;73.92
6150;BME280;3106;42.670;23.318;2023-02-19T00:37:59;94666.69;;;7.38;74.14
6150;BME280;3106;42.670;23.318;2023-02-19T00:40:26;94671.69;;;7.48;74.41
6150;BME280;3106;42.670;23.318;2023-02-19T00:42:53;94671.81;;;7.43;73.96
6150;BME280;3106;42.670;23.318;2023-02-19T00:45:22;94676.38;;;7.43;73.98
6150;BME280;3106;42.670;23.318;2023-02-19T00:47:49;94667.31;;;7.43;74.33
6150;BME280;3106;42.670;23.318;2023-02-19T00:50:18;94663.88;;;7.35;74.70
6150;BME280;3106;42.670;23.318;2023-02-19T00:52:45;94654.47;;;7.37;74.45
6150;BME280;3106;42.670;23.318;2023-02-19T00:55:12;94654.78;;;7.44;73.79
6150;BME280;3106;42.670;23.318;2023-02-19T00:57:38;94661.97;;;7.43;74.56
6150;BME280;3106;42.670;23.318;2023-02-19T01:00:06;94655.22;;;7.46;74.78
6150;BME280;3106;42.670;23.318;2023-02-19T01:02:33;94603.06;;;7.16;74.29
6150;BME280;3106;42.670;23.318;2023-02-19T01:05:02;94653.53;;;7.50;73.67
6150;BME280;3106;42.670;23.318;2023-02-19T01:07:34;94652.56;;;7.46;74.12
6150;BME280;3106;42.670;23.318;2023-02-19T01:10:01;94658.69;;;7.38;74.33
6150;BME280;3106;42.670;23.318;2023-02-19T01:12:28;94665.91;;;7.38;74.03
6150;BME280;3106;42.670;23.318;2023-02-19T01:14:58;94647.28;;;7.38;74.42
6150;BME280;3106;42.670;23.318;2023-02-19T01:17:25;94642.25;;;7.44;73.90
6150;BME280;3106;42.670;23.318;2023-02-19T01:19:52;94639.75;;;7.48;73.24
6150;BME280;3106;42.670;23.318;2023-02-19T01:22:19;94644.59;;;7.46;73.64
6150;BME280;3106;42.670;23.318;2023-02-19T01:24:47;94653.84;;;7.40;73.65
6150;BME280;3106;42.670;23.318;2023-02-19T01:27:14;94645.25;;;7.35;73.36
6150;BME280;3106;42.670;23.318;2023-02-19T01:29:42;94641.81;;;7.26;73.37
6150;BME280;3106;42.670;23.318;2023-02-19T01:32:09;94679.66;;;7.40;72.84
6150;BME280;3106;42.670;23.318;2023-02-19T01:34:35;94662.16;;;7.39;73.74
6150;BME280;3106;42.670;23.318;2023-02-19T01:37:02;94678.56;;;7.32;73.50
6150;BME280;3106;42.670;23.318;2023-02-19T01:39:32;94671.69;;;7.31;73.33
6150;BME280;3106;42.670;23.318;2023-02-19T01:42:00;94673.59;;;7.31;73.82
6150;BME280;3106;42.670;23.318;2023-02-19T01:47:31;94698.78;;;7.08;74.29
6150;BME280;3106;42.670;23.318;2023-02-19T01:49:58;94703.47;;;7.19;75.08
6150;BME280;3106;42.670;23.318;2023-02-19T01:52:29;94712.06;;;7.16;75.24
6150;BME280;3106;42.670;23.318;2023-02-19T01:54:57;94688.31;;;7.11;75.04
6150;BME280;3106;42.670;23.318;2023-02-19T01:57:29;94696.72;;;7.22;75.39
6150;BME280;3106;42.670;23.318;2023-02-19T02:00:02;94706.75;;;7.08;75.57
6150;BME280;3106;42.670;23.318;2023-02-19T02:02:30;94683.00;;;7.11;74.80
6150;BME280;3106;42.670;23.318;2023-02-19T02:04:58;94689.38;;;7.10;74.92
6150;BME280;3106;42.670;23.318;2023-02-19T02:07:25;94682.22;;;6.94;75.72
6150;BME280;3106;42.670;23.318;2023-02-19T02:10:10;94685.66;;;7.11;75.54
6150;BME280;3106;42.670;23.318;2023-02-19T02:12:48;94685.16;;;7.09;75.02
6150;BME280;3106;42.670;23.318;2023-02-19T02:15:16;94685.66;;;7.11;74.22
6150;BME280;3106;42.670;23.318;2023-02-19T02:17:51;94687.66;;;7.06;74.69
6150;BME280;3106;42.670;23.318;2023-02-19T02:20:39;94687.81;;;7.18;74.93
6150;BME280;3106;42.670;23.318;2023-02-19T02:23:16;94687.03;;;7.17;74.34
6150;BME280;3106;42.670;23.318;2023-02-19T02:25:59;94694.38;;;7.12;74.93
6150;BME280;3106;42.670;23.318;2023-02-19T02:29:01;94693.28;;;7.13;75.50
6150;BME280;3106;42.670;23.318;2023-02-19T02:31:40;94699.53;;;7.08;74.33
6150;BME280;3106;42.670;23.318;2023-02-19T02:34:11;94695.81;;;7.01;75.04
6150;BME280;3106;42.670;23.318;2023-02-19T02:36:42;94709.88;;;7.01;75.49
6150;BME280;3106;42.670;23.318;2023-02-19T02:39:14;94689.22;;;6.98;74.79
6150;BME280;3106;42.670;23.318;2023-02-19T02:41:44;94696.44;;;6.98;74.70
6150;BME280;3106;42.670;23.318;2023-02-19T02:44:35;94708.78;;;6.94;75.60
6150;BME280;3106;42.670;23.318;2023-02-19T02:47:05;94693.13;;;6.92;75.59
6150;BME280;3106;42.670;23.318;2023-02-19T02:49:54;94702.03;;;6.88;75.05
6150;BME280;3106;42.670;23.318;2023-02-19T02:52:31;94700.00;;;6.85;75.81
6150;BME280;3106;42.670;23.318;2023-02-19T02:55:17;94690.63;;;6.87;75.02
6150;BME280;3106;42.670;23.318;2023-02-19T02:57:44;94693.13;;;6.92;74.64
6150;BME280;3106;42.670;23.318;2023-02-19T03:00:12;94692.81;;;6.85;75.44
6150;BME280;3106;42.670;23.318;2023-02-19T03:02:42;94685.31;;;6.87;75.74
6150;BME280;3106;42.670;23.318;2023-02-19T03:05:12;94696.41;;;6.89;75.83
6150;BME280;3106;42.670;23.318;2023-02-19T03:08:04;94694.22;;;6.91;75.45
6150;BME280;3106;42.670;23.318;2023-02-19T03:10:38;94692.97;;;6.72;76.82
6150;BME280;3106;42.670;23.318;2023-02-19T03:13:10;94703.91;;;6.79;76.52
6150;BME280;3106;42.670;23.318;2023-02-19T03:16:04;94698.91;;;6.77;76.42
6150;BME280;3106;42.670;23.318;2023-02-19T03:18:53;94683.91;;;6.73;76.64
6150;BME280;3106;42.670;23.318;2023-02-19T03:21:41;94702.34;;;6.78;77.30
6150;BME280;3106;42.670;23.318;2023-02-19T03:24:10;94705.78;;;6.87;76.18
6150;BME280;3106;42.670;23.318;2023-02-19T03:26:55;94720.81;;;6.91;75.87
6150;BME280;3106;42.670;23.318;2023-02-19T03:29:27;94729.88;;;6.99;76.11
6150;BME280;3106;42.670;23.318;2023-02-19T03:31:57;94725.50;;;6.94;75.46
6150;BME280;3106;42.670;23.318;2023-02-19T03:34:29;94729.41;;;7.05;75.60
6150;BME280;3106;42.670;23.318;2023-02-19T03:37:05;94739.13;;;7.10;75.02
6150;BME280;3106;42.670;23.318;2023-02-19T03:39:35;94731.59;;;7.03;74.58
6150;BME280;3106;42.670;23.318;2023-02-19T03:42:16;94738.66;;;7.08;75.10
6150;BME280;3106;42.670;23.318;2023-02-19T03:44:49;94758.19;;;7.03;75.54
6150;BME280;3106;42.670;23.318;2023-02-19T03:47:21;94750.19;;;7.03;74.96
6150;BME280;3106;42.670;23.318;2023-02-19T03:49:55;94727.22;;;6.99;75.15
6150;BME280;3106;42.670;23.318;2023-02-19T03:52:33;94751.75;;;7.04;75.19
6150;BME280;3106;42.670;23.318;2023-02-19T03:55:05;94743.63;;;7.09;73.03
6150;BME280;3106;42.670;23.318;2023-02-19T03:57:44;94748.50;;;7.16;73.28
6150;BME280;3106;42.670;23.318;2023-02-19T04:00:16;94764.75;;;7.23;74.01
6150;BME280;3106;42.670;23.318;2023-02-19T04:02:48;94759.59;;;7.09;75.43
6150;BME280;3106;42.670;23.318;2023-02-19T04:05:22;94760.06;;;7.03;73.96
6150;BME280;3106;42.670;23.318;2023-02-19T04:07:53;94758.66;;;7.14;73.95
6150;BME280;3106;42.670;23.318;2023-02-19T04:10:23;94754.59;;;7.16;73.31
6150;BME280;3106;42.670;23.318;2023-02-19T04:12:54;94758.38;;;7.15;73.76
6150;BME280;3106;42.670;23.318;2023-02-19T04:15:26;94755.53;;;7.12;73.25
6150;BME280;3106;42.670;23.318;2023-02-19T04:17:58;94761.47;;;7.09;73.87
6150;BME280;3106;42.670;23.318;2023-02-19T04:20:29;94775.84;;;7.08;73.86
6150;BME280;3106;42.670;23.318;2023-02-19T04:22:58;94771.78;;;7.10;74.49
6150;BME280;3106;42.670;23.318;2023-02-19T04:25:26;94762.09;;;6.97;75.28
6150;BME280;3106;42.670;23.318;2023-02-19T04:27:54;94772.38;;;6.90;76.04
6150;BME280;3106;42.670;23.318;2023-02-19T04:30:20;94763.94;;;6.88;75.96
6150;BME280;3106;42.670;23.318;2023-02-19T04:32:47;94758.31;;;6.81;76.09
6150;BME280;3106;42.670;23.318;2023-02-19T04:35:15;94768.75;;;6.69;76.54
6150;BME280;3106;42.670;23.318;2023-02-19T04:37:43;94782.34;;;6.68;76.74
6150;BME280;3106;42.670;23.318;2023-02-19T04:40:10;94783.84;;;6.52;77.61
6150;BME280;3106;42.670;23.318;2023-02-19T04:42:37;94778.84;;;6.50;77.62
6150;BME280;3106;42.670;23.318;2023-02-19T04:45:04;94779.47;;;6.47;78.41
6150;BME280;3106;42.670;23.318;2023-02-19T04:47:32;94757.34;;;6.21;78.96
6150;BME280;3106;42.670;23.318;2023-02-19T04:49:58;94772.22;;;6.31;79.22
6150;BME280;3106;42.670;23.318;2023-02-19T04:52:25;94774.06;;;6.30;79.24
6150;BME280;3106;42.670;23.318;2023-02-19T04:54:53;94775.16;;;6.29;79.57
6150;BME280;3106;42.670;23.318;2023-02-19T04:57:20;94778.44;;;6.26;79.86
6150;BME280;3106;42.670;23.318;2023-02-19T04:59:47;94783.59;;;6.31;79.84
6150;BME280;3106;42.670;23.318;2023-02-19T05:02:14;94776.09;;;6.25;79.52
6150;BME280;3106;42.670;23.318;2023-02-19T05:04:41;94770.66;;;6.30;79.09
6150;BME280;3106;42.670;23.318;2023-02-19T05:07:13;94779.00;;;6.45;78.13
6150;BME280;3106;42.670;23.318;2023-02-19T05:09:40;94770.25;;;6.53;77.64
6150;BME280;3106;42.670;23.318;2023-02-19T05:12:08;94780.44;;;6.60;77.76
6150;BME280;3106;42.670;23.318;2023-02-19T05:14:35;94772.97;;;6.70;76.88
6150;BME280;3106;42.670;23.318;2023-02-19T05:17:02;94782.22;;;6.81;76.09
6150;BME280;3106;42.670;23.318;2023-02-19T05:19:29;94788.63;;;6.80;76.31
6150;BME280;3106;42.670;23.318;2023-02-19T05:21:56;94800.00;;;6.72;76.90
6150;BME280;3106;42.670;23.318;2023-02-19T05:24:23;94794.06;;;6.67;76.97
6150;BME280;3106;42.670;23.318;2023-02-19T05:26:51;94779.84;;;6.63;77.46
6150;BME280;3106;42.670;23.318;2023-02-19T05:29:19;94796.91;;;6.79;77.04
6150;BME280;3106;42.670;23.318;2023-02-19T05:31:46;94793.00;;;6.76;77.10
6150;BME280;3106;42.670;23.318;2023-02-19T05:34:13;94791.09;;;6.68;77.49
6150;BME280;3106;42.670;23.318;2023-02-19T05:36:40;94801.75;;;6.77;77.20
6150;BME280;3106;42.670;23.318;2023-02-19T05:39:10;94799.09;;;6.77;78.32
6150;BME280;3106;42.670;23.318;2023-02-19T05:41:37;94794.88;;;6.76;77.93
6150;BME280;3106;42.670;23.318;2023-02-19T05:44:04;94809.19;;;7.22;75.99
6150;BME280;3106;42.670;23.318;2023-02-19T05:46:32;94808.09;;;7.74;73.80
6150;BME280;3106;42.670;23.318;2023-02-19T05:48:59;94802.09;;;8.11;71.13
6150;BME280;3106;42.670;23.318;2023-02-19T05:51:26;94802.22;;;8.31;70.92
6150;BME280;3106;42.670;23.318;2023-02-19T05:53:54;94810.63;;;8.59;69.23
6150;BME280;3106;42.670;23.318;2023-02-19T05:56:26;94764.72;;;8.53;67.78
6150;BME280;3106;42.670;23.318;2023-02-19T05:58:55;94829.03;;;9.09;67.31
6150;BME280;3106;42.670;23.318;2023-02-19T06:01:24;94819.53;;;9.20;66.51
6150;BME280;3106;42.670;23.318;2023-02-19T06:03:53;94828.75;;;9.31;65.61
6150;BME280;3106;42.670;23.318;2023-02-19T06:06:20;94834.16;;;9.43;65.33
6150;BME280;3106;42.670;23.318;2023-02-19T06:08:47;94831.09;;;9.53;64.33
6150;BME280;3106;42.670;23.318;2023-02-19T06:11:15;94837.53;;;9.52;64.32
6150;BME280;3106;42.670;23.318;2023-02-19T06:13:42;94841.28;;;9.80;63.38
6150;BME280;3106;42.670;23.318;2023-02-19T06:16:09;94842.44;;;9.91;62.86
6150;BME280;3106;42.670;23.318;2023-02-19T06:18:36;94856.78;;;9.87;62.89
6150;BME280;3106;42.670;23.318;2023-02-19T06:21:07;94815.72;;;9.71;62.08
6150;BME280;3106;42.670;23.318;2023-02-19T06:23:35;94862.38;;;9.94;62.16
6150;BME280;3106;42.670;23.318;2023-02-19T06:26:09;94859.09;;;9.88;62.43
6150;BME280;3106;42.670;23.318;2023-02-19T06:28:36;94855.41;;;10.01;62.63
6150;BME280;3106;42.670;23.318;2023-02-19T06:31:04;94859.97;;;10.01;62.34
6150;BME280;3106;42.670;23.318;2023-02-19T06:36:20;94856.78;;;10.07;62.28
6150;BME280;3106;42.670;23.318;2023-02-19T06:38:47;94856.16;;;10.22;62.27
6150;BME280;3106;42.670;23.318;2023-02-19T06:41:15;94846.75;;;10.37;61.44
6150;BME280;3106;42.670;23.318;2023-02-19T06:43:42;94863.53;;;10.57;60.51
6150;BME280;3106;42.670;23.318;2023-02-19T06:46:10;94853.59;;;10.58;60.62
6150;BME280;3106;42.670;23.318;2023-02-19T06:48:39;94831.31;;;10.42;60.53
6150;BME280;3106;42.670;23.318;2023-02-19T06:51:06;94854.72;;;10.69;59.64
6150;BME280;3106;42.670;23.318;2023-02-19T06:53:35;94859.09;;;10.73;59.51
6150;BME280;3106;42.670;23.318;2023-02-19T06:56:04;94856.56;;;10.77;59.80
6150;BME280;3106;42.670;23.318;2023-02-19T06:58:32;94861.44;;;10.75;59.39
6150;BME280;3106;42.670;23.318;2023-02-19T07:00:59;94862.09;;;10.72;59.45
6150;BME280;3106;42.670;23.318;2023-02-19T07:03:26;94863.09;;;10.67;59.83
6150;BME280;3106;42.670;23.318;2023-02-19T07:05:53;94874.00;;;10.62;60.01
6150;BME280;3106;42.670;23.318;2023-02-19T07:08:19;94865.19;;;10.50;60.02
6150;BME280;3106;42.670;23.318;2023-02-19T07:10:54;94871.41;;;10.42;59.86
6150;BME280;3106;42.670;23.318;2023-02-19T07:13:21;94873.94;;;10.39;60.05
6150;BME280;3106;42.670;23.318;2023-02-19T07:15:49;94874.25;;;10.37;59.97
6150;BME280;3106;42.670;23.318;2023-02-19T07:18:16;94871.72;;;10.41;59.28
6150;BME280;3106;42.670;23.318;2023-02-19T07:20:43;94872.28;;;10.46;59.76
6150;BME280;3106;42.670;23.318;2023-02-19T07:23:09;94870.53;;;10.50;59.80
6150;BME280;3106;42.670;23.318;2023-02-19T07:25:37;94859.84;;;10.62;58.98
6150;BME280;3106;42.670;23.318;2023-02-19T07:28:06;94854.63;;;10.65;58.90
6150;BME280;3106;42.670;23.318;2023-02-19T07:30:33;94853.88;;;10.77;58.59
6150;BME280;3106;42.670;23.318;2023-02-19T07:33:00;94844.75;;;10.90;58.09
6150;BME280;3106;42.670;23.318;2023-02-19T07:35:27;94855.22;;;10.95;58.22
6150;BME280;3106;42.670;23.318;2023-02-19T07:37:54;94846.75;;;11.05;58.15
6150;BME280;3106;42.670;23.318;2023-02-19T07:40:20;94852.13;;;11.17;57.85
6150;BME280;3106;42.670;23.318;2023-02-19T07:42:47;94847.88;;;11.28;57.34
6150;BME280;3106;42.670;23.318;2023-02-19T07:45:16;94852.34;;;11.36;56.96
6150;BME280;3106;42.670;23.318;2023-02-19T07:47:43;94842.63;;;11.43;56.81
6150;BME280;3106;42.670;23.318;2023-02-19T07:50:10;94841.94;;;11.46;56.42
6150;BME280;3106;42.670;23.318;2023-02-19T07:52:36;94831.56;;;11.45;56.47
6150;BME280;3106;42.670;23.318;2023-02-19T07:55:04;94835.16;;;11.49;56.32
6150;BME280;3106;42.670;23.318;2023-02-19T07:57:31;94831.69;;;11.60;55.97
6150;BME280;3106;42.670;23.318;2023-02-19T07:59:58;94840.47;;;11.73;55.77
6150;BME280;3106;42.670;23.318;2023-02-19T08:02:26;94828.09;;;11.80;55.53
6150;BME280;3106;42.670;23.318;2023-02-19T08:05:10;94841.56;;;11.84;55.20
6150;BME280;3106;42.670;23.318;2023-02-19T08:07:38;94831.28;;;11.98;55.47
6150;BME280;3106;42.670;23.318;2023-02-19T08:10:05;94829.41;;;12.13;54.43
6150;BME280;3106;42.670;23.318;2023-02-19T08:12:56;94819.34;;;12.22;54.19
6150;BME280;3106;42.670;23.318;2023-02-19T08:15:40;94833.44;;;12.62;53.62
6150;BME280;3106;42.670;23.318;2023-02-19T08:18:09;94829.88;;;12.58;53.34
6150;BME280;3106;42.670;23.318;2023-02-19T08:20:37;94828.75;;;12.59;53.62
6150;BME280;3106;42.670;23.318;2023-02-19T08:23:04;94834.63;;;12.65;52.96
6150;BME280;3106;42.670;23.318;2023-02-19T08:25:32;94830.94;;;12.85;52.68
6150;BME280;3106;42.670;23.318;2023-02-19T08:27:59;94820.41;;;13.07;52.06
6150;BME280;3106;42.670;23.318;2023-02-19T08:30:26;94823.44;;;13.06;51.75
6150;BME280;3106;42.670;23.318;2023-02-19T08:32:54;94824.47;;;13.17;51.31
6150;BME280;3106;42.670;23.318;2023-02-19T08:35:22;94830.75;;;13.40;50.81
6150;BME280;3106;42.670;23.318;2023-02-19T08:37:49;94815.13;;;13.60;49.63
6150;BME280;3106;42.670;23.318;2023-02-19T08:40:16;94797.00;;;13.73;48.33
6150;BME280;3106;42.670;23.318;2023-02-19T08:42:43;94834.75;;;13.99;48.31
6150;BME280;3106;42.670;23.318;2023-02-19T08:45:10;94823.63;;;14.16;47.25
6150;BME280;3106;42.670;23.318;2023-02-19T08:47:37;94821.00;;;14.38;47.64
6150;BME280;3106;42.670;23.318;2023-02-19T08:50:04;94824.44;;;14.58;46.81
6150;BME280;3106;42.670;23.318;2023-02-19T08:52:33;94821.00;;;14.80;46.03
6150;BME280;3106;42.670;23.318;2023-02-19T08:55:00;94820.59;;;15.00;45.36
6150;BME280;3106;42.670;23.318;2023-02-19T08:57:27;94818.31;;;15.02;45.39
6150;BME280;3106;42.670;23.318;2023-02-19T08:59:55;94816.22;;;15.14;45.57
6150;BME280;3106;42.670;23.318;2023-02-19T09:02:22;94810.53;;;15.42;44.51
6150;BME280;3106;42.670;23.318;2023-02-19T09:04:49;94810.53;;;15.42;44.96
6150;BME280;3106;42.670;23.318;2023-02-19T09:07:16;94811.66;;;15.41;44.85
6150;BME280;3106;42.670;23.318;2023-02-19T09:09:45;94808.97;;;15.41;45.11
6150;BME280;3106;42.670;23.318;2023-02-19T09:12:12;94805.97;;;15.46;44.83
6150;BME280;3106;42.670;23.318;2023-02-19T09:14:38;94797.06;;;15.68;44.42
6150;BME280;3106;42.670;23.318;2023-02-19T09:17:07;94780.19;;;15.74;44.38
6150;BME280;3106;42.670;23.318;2023-02-19T09:19:35;94785.78;;;15.88;44.21
6150;BME280;3106;42.670;23.318;2023-02-19T09:22:03;94784.94;;;15.84;43.83
6150;BME280;3106;42.670;23.318;2023-02-19T09:24:30;94778.59;;;15.99;43.79
6150;BME280;3106;42.670;23.318;2023-02-19T09:26:58;94777.94;;;15.80;44.71
6150;BME280;3106;42.670;23.318;2023-02-19T09:29:26;94776.00;;;15.77;45.15
6150;BME280;3106;42.670;23.318;2023-02-19T09:31:57;94772.19;;;15.81;44.92
6150;BME280;3106;42.670;23.318;2023-02-19T09:34:24;94773.69;;;16.08;43.79
6150;BME280;3106;42.670;23.318;2023-02-19T09:36:52;94777.25;;;16.16;44.91
6150;BME280;3106;42.670;23.318;2023-02-19T09:39:20;94770.56;;;16.06;45.12
6150;BME280;3106;42.670;23.318;2023-02-19T09:41:48;94771.38;;;16.07;44.44
6150;BME280;3106;42.670;23.318;2023-02-19T09:44:23;94775.56;;;16.04;44.00
6150;BME280;3106;42.670;23.318;2023-02-19T09:46:52;94777.44;;;16.33;43.45
6150;BME280;3106;42.670;23.318;2023-02-19T09:49:21;94770.44;;;16.29;44.30
6150;BME280;3106;42.670;23.318;2023-02-19T09:51:52;94762.97;;;16.15;44.04
6150;BME280;3106;42.670;23.318;2023-02-19T09:54:22;94758.06;;;15.91;44.05
6150;BME280;3106;42.670;23.318;2023-02-19T09:56:50;94745.31;;;15.88;43.91
6150;BME280;3106;42.670;23.318;2023-02-19T09:59:21;94743.66;;;16.10;43.67
6150;BME280;3106;42.670;23.318;2023-02-19T10:01:54;94744.63;;;15.95;43.04
6150;BME280;3106;42.670;23.318;2023-02-19T10:04:23;94722.91;;;15.84;43.13
6150;BME280;3106;42.670;23.318;2023-02-19T10:06:50;94716.06;;;15.90;43.33
6150;BME280;3106;42.670;23.318;2023-02-19T10:09:21;94725.72;;;15.91;42.83
6150;BME280;3106;42.670;23.318;2023-02-19T10:11:51;94724.44;;;16.15;42.47
6150;BME280;3106;42.670;23.318;2023-02-19T10:14:28;94710.56;;;16.49;41.70
6150;BME280;3106;42.670;23.318;2023-02-19T10:16:57;94703.81;;;16.69;41.36
6150;BME280;3106;42.670;23.318;2023-02-19T10:19:25;94701.16;;;16.76;41.07
6150;BME280;3106;42.670;23.318;2023-02-19T10:21:52;94699.91;;;16.67;41.25
6150;BME280;3106;42.670;23.318;2023-02-19T10:24:20;94692.44;;;16.50;41.04
6150;BME280;3106;42.670;23.318;2023-02-19T10:26:50;94688.69;;;16.61;41.08
6150;BME280;3106;42.670;23.318;2023-02-19T10:29:17;94678.81;;;16.79;40.80
6150;BME280;3106;42.670;23.318;2023-02-19T10:31:47;94679.50;;;16.69;40.94
6150;BME280;3106;42.670;23.318;2023-02-19T10:34:17;94675.50;;;16.53;41.00
6150;BME280;3106;42.670;23.318;2023-02-19T10:36:47;94672.72;;;16.42;41.21
6150;BME280;3106;42.670;23.318;2023-02-19T10:39:37;94661.00;;;16.71;40.89
6150;BME280;3106;42.670;23.318;2023-02-19T10:42:13;94657.16;;;16.75;40.76
6150;BME280;3106;42.670;23.318;2023-02-19T10:44:43;94650.56;;;16.66;40.38
6150;BME280;3106;42.670;23.318;2023-02-19T10:47:17;94644.97;;;16.45;41.19
6150;BME280;3106;42.670;23.318;2023-02-19T10:49:45;94630.72;;;16.45;40.98
6150;BME280;3106;42.670;23.318;2023-02-19T10:52:16;94632.28;;;16.49;40.97
6150;BME280;3106;42.670;23.318;2023-02-19T10:54:49;94629.97;;;16.51;40.72
6150;BME280;3106;42.670;23.318;2023-02-19T10:57:28;94620.91;;;16.76;40.72
6150;BME280;3106;42.670;23.318;2023-02-19T10:59:59;94623.69;;;16.87;40.33
6150;BME280;3106;42.670;23.318;2023-02-19T11:02:46;94624.09;;;16.85;40.05
6150;BME280;3106;42.670;23.318;2023-02-19T11:05:16;94613.69;;;16.87;39.99
6150;BME280;3106;42.670;23.318;2023-02-19T11:07:47;94601.72;;;16.92;39.81
6150;BME280;3106;42.670;23.318;2023-02-19T11:10:25;94594.78;;;16.91;39.84
6150;BME280;3106;42.670;23.318;2023-02-19T11:12:55;94594.44;;;16.96;39.98
6150;BME280;3106;42.670;23.318;2023-02-19T11:15:26;94589.53;;;17.19;39.65
6150;BME280;3106;42.670;23.318;2023-02-19T11:17:57;94559.00;;;17.08;39.10
6150;BME280;3106;42.670;23.318;2023-02-19T11:20:26;94587.78;;;17.54;38.97
6150;BME280;3106;42.670;23.318;2023-02-19T11:22:57;94580.16;;;17.88;38.00
6150;BME280;3106;42.670;23.318;2023-02-19T11:25:27;94548.00;;;17.55;37.66
6150;BME280;3106;42.670;23.318;2023-02-19T11:27:56;94575.88;;;17.80;37.78
6150;BME280;3106;42.670;23.318;2023-02-19T11:30:34;94558.50;;;17.74;37.72
6150;BME280;3106;42.670;23.318;2023-02-19T11:33:22;94561.97;;;17.81;37.72
6150;BME280;3106;42.670;23.318;2023-02-19T11:35:56;94555.03;;;17.98;36.89
6150;BME280;3106;42.670;23.318;2023-02-19T11:38:24;94553.13;;;18.23;36.45
6150;BME280;3106;42.670;23.318;2023-02-19T11:40:58;94541.94;;;18.21;36.41
6150;BME280;3106;42.670;23.318;2023-02-19T11:43:46;94540.78;;;18.28;36.45
6150;BME280;3106;42.670;23.318;2023-02-19T11:46:19;94531.91;;;18.28;36.08
6150;BME280;3106;42.670;23.318;2023-02-19T11:48:56;94524.94;;;18.30;35.78
6150;BME280;3106;42.670;23.318;2023-02-19T11:51:51;94528.81;;;18.43;35.67
6150;BME280;3106;42.670;23.318;2023-02-19T11:54:35;94517.19;;;18.43;34.79
6150;BME280;3106;42.670;23.318;2023-02-19T11:57:11;94514.09;;;18.51;34.95
6150;BME280;3106;42.670;23.318;2023-02-19T11:59:46;94522.59;;;18.60;34.96
6150;BME280;3106;42.670;23.318;2023-02-19T12:02:32;94509.00;;;18.78;34.70
6150;BME280;3106;42.670;23.318;2023-02-19T12:05:18;94515.97;;;18.89;34.08
6150;BME280;3106;42.670;23.318;2023-02-19T12:10:46;94504.75;;;18.87;33.75
6150;BME280;3106;42.670;23.318;2023-02-19T12:13:22;94503.47;;;19.13;33.45
6150;BME280;3106;42.670;23.318;2023-02-19T12:16:03;94498.44;;;19.11;33.47
6150;BME280;3106;42.670;23.318;2023-02-19T12:18:54;94489.50;;;19.25;33.08
6150;BME280;3106;42.670;23.318;2023-02-19T12:21:41;94492.56;;;19.41;32.57
6150;BME280;3106;42.670;23.318;2023-02-19T12:24:34;94490.69;;;19.27;33.79
6150;BME280;3106;42.670;23.318;2023-02-19T12:27:15;94474.31;;;19.45;32.88
6150;BME280;3106;42.670;23.318;2023-02-19T12:30:02;94472.56;;;19.75;32.32
6150;BME280;3106;42.670;23.318;2023-02-19T12:32:51;94468.97;;;19.92;32.47
6150;BME280;3106;42.670;23.318;2023-02-19T12:35:43;94461.66;;;19.82;33.41
6150;BME280;3106;42.670;23.318;2023-02-19T12:38:20;94457.03;;;19.83;33.66
6150;BME280;3106;42.670;23.318;2023-02-19T12:41:01;94452.63;;;19.99;33.23
6150;BME280;3106;42.670;23.318;2023-02-19T12:43:36;94455.25;;;20.13;33.30
6150;BME280;3106;42.670;23.318;2023-02-19T12:46:07;94451.28;;;20.21;32.95
6150;BME280;3106;42.670;23.318;2023-02-19T12:48:41;94441.13;;;20.32;33.28
6150;BME280;3106;42.670;23.318;2023-02-19T12:51:16;94438.41;;;20.32;32.98
6150;BME280;3106;42.670;23.318;2023-02-19T12:53:52;94435.25;;;20.37;33.54
6150;BME280;3106;42.670;23.318;2023-02-19T12:56:22;94420.16;;;20.32;33.17
6150;BME280;3106;42.670;23.318;2023-02-19T12:58:54;94420.22;;;20.29;32.73
6150;BME280;3106;42.670;23.318;2023-02-19T13:01:25;94411.13;;;20.05;33.12
6150;BME280;3106;42.670;23.318;2023-02-19T13:04:13;94409.59;;;19.97;33.15
6150;BME280;3106;42.670;23.318;2023-02-19T13:06:44;94396.06;;;19.94;33.23
6150;BME280;3106;42.670;23.318;2023-02-19T13:09:19;94403.00;;;20.02;32.39
6150;BME280;3106;42.670;23.318;2023-02-19T13:11:51;94398.97;;;20.17;32.67
6150;BME280;3106;42.670;23.318;2023-02-19T13:14:23;94391.50;;;20.28;32.46
6150;BME280;3106;42.670;23.318;2023-02-19T13:16:57;94366.72;;;20.26;32.17
6150;BME280;3106;42.670;23.318;2023-02-19T13:19:25;94396.63;;;20.56;31.99
6150;BME280;3106;42.670;23.318;2023-02-19T13:21:57;94387.59;;;20.66;31.03
6150;BME280;3106;42.670;23.318;2023-02-19T13:24:48;94379.25;;;20.50;31.69
6150;BME280;3106;42.670;23.318;2023-02-19T13:27:30;94377.38;;;20.43;32.14
6150;BME280;3106;42.670;23.318;2023-02-19T13:30:10;94365.16;;;20.25;32.16
6150;BME280;3106;42.670;23.318;2023-02-19T13:32:54;94366.47;;;20.47;31.35
6150;BME280;3106;42.670;23.318;2023-02-19T13:35:36;94369.41;;;20.63;31.44
6150;BME280;3106;42.670;23.318;2023-02-19T13:38:16;94365.88;;;20.66;31.62
6150;BME280;3106;42.670;23.318;2023-02-19T13:40:55;94362.16;;;20.86;31.24
6150;BME280;3106;42.670;23.318;2023-02-19T13:43:25;94352.91;;;20.77;31.75
6150;BME280;3106;42.670;23.318;2023-02-19T13:45:56;94362.88;;;20.90;31.61